sensor_id;sensor_type;location;lat;lon;timestamp;P1;durP1;ratioP1;P2;durP2;ratioP2
16193;SDS011;8204;53.582;10.080;2023-05-10T00:01:08;5.50;;;5.10;;
16193;SDS011;8204;53.582;10.080;2023-05-10T00:03:37;6.17;;;5.57;;
16193;SDS011;8204;53.582;10.080;2023-05-10T00:06:15;5.63;;;5.13;;
16193;SDS011;8204;53.582;10.080;2023-05-10T00:08:44;9.70;;;4.93;;
16193;SDS011;8204;53.582;10.080;2023-05-10T00:11:13;5.73;;;5.23;;
16193;SDS011;8204;53.582;10.080;2023-05-10T00:13:42;5.37;;;4.93;;
16193;SDS011;8204;53.582;10.080;2023-05-10T00:16:13;6.37;;;5.83;;
16193;SDS011;8204;53.582;10.080;2023-05-10T00:18:42;6.73;;;6.07;;
16193;SDS011;8204;53.582;10.080;2023-05-10T00:21:15;6.10;;;5.50;;
16193;SDS011;8204;53.582;10.080;2023-05-10T00:23:44;7.27;;;5.63;;
16193;SDS011;8204;53.582;10.080;2023-05-10T00:26:13;6.87;;;5.03;;
16193;SDS011;8204;53.582;10.080;2023-05-10T00:28:42;5.37;;;4.87;;
16193;SDS011;8204;53.582;10.080;2023-05-10T00:31:11;6.40;;;5.03;;
16193;SDS011;8204;53.582;10.080;2023-05-10T00:33:40;5.10;;;4.60;;
16193;SDS011;8204;53.582;10.080;2023-05-10T00:36:09;7.03;;;6.00;;
16193;SDS011;8204;53.582;10.080;2023-05-10T00:38:41;5.67;;;5.27;;
16193;SDS011;8204;53.582;10.080;2023-05-10T00:41:10;5.43;;;4.93;;
16193;SDS011;8204;53.582;10.080;2023-05-10T00:43:40;5.40;;;4.73;;
16193;SDS011;8204;53.582;10.080;2023-05-10T00:46:08;5.77;;;5.20;;
16193;SDS011;8204;53.582;10.080;2023-05-10T00:48:37;5.27;;;4.87;;
16193;SDS011;8204;53.582;10.080;2023-05-10T00:51:06;6.13;;;5.63;;
16193;SDS011;8204;53.582;10.080;2023-05-10T00:53:35;5.57;;;4.83;;
16193;SDS011;8204;53.582;10.080;2023-05-10T00:56:06;5.03;;;4.63;;
16193;SDS011;8204;53.582;10.080;2023-05-10T00:58:36;6.20;;;5.03;;
16193;SDS011;8204;53.582;10.080;2023-05-10T01:01:05;4.87;;;4.53;;
16193;SDS011;8204;53.582;10.080;2023-05-10T01:03:35;6.07;;;5.57;;
16193;SDS011;8204;53.582;10.080;2023-05-10T01:06:04;8.07;;;6.27;;
16193;SDS011;8204;53.582;10.080;2023-05-10T01:08:35;4.97;;;4.67;;
16193;SDS011;8204;53.582;10.080;2023-05-10T01:11:07;6.43;;;5.53;;
16193;SDS011;8204;53.582;10.080;2023-05-10T01:13:36;6.97;;;5.40;;
16193;SDS011;8204;53.582;10.080;2023-05-10T01:16:07;9.73;;;5.30;;
16193;SDS011;8204;53.582;10.080;2023-05-10T01:18:36;9.27;;;5.37;;
16193;SDS011;8204;53.582;10.080;2023-05-10T01:21:10;5.67;;;4.97;;
16193;SDS011;8204;53.582;10.080;2023-05-10T01:24:09;6.70;;;5.10;;
16193;SDS011;8204;53.582;10.080;2023-05-10T01:27:14;5.37;;;4.87;;
16193;SDS011;8204;53.582;10.080;2023-05-10T01:30:01;8.40;;;5.57;;
16193;SDS011;8204;53.582;10.080;2023-05-10T01:32:41;5.70;;;5.10;;
16193;SDS011;8204;53.582;10.080;2023-05-10T01:35:16;7.47;;;5.53;;
16193;SDS011;8204;53.582;10.080;2023-05-10T01:37:50;5.40;;;4.90;;
16193;SDS011;8204;53.582;10.080;2023-05-10T01:40:29;6.20;;;5.53;;
16193;SDS011;8204;53.582;10.080;2023-05-10T01:43:04;6.73;;;5.60;;
16193;SDS011;8204;53.582;10.080;2023-05-10T01:45:41;5.07;;;4.67;;
16193;SDS011;8204;53.582;10.080;2023-05-10T01:48:18;5.47;;;4.97;;
16193;SDS011;8204;53.582;10.080;2023-05-10T01:50:48;6.07;;;5.47;;
16193;SDS011;8204;53.582;10.080;2023-05-10T01:53:19;7.87;;;6.50;;
16193;SDS011;8204;53.582;10.080;2023-05-10T01:55:50;6.40;;;5.80;;
16193;SDS011;8204;53.582;10.080;2023-05-10T01:58:23;6.67;;;5.27;;
16193;SDS011;8204;53.582;10.080;2023-05-10T02:00:55;6.53;;;6.00;;
16193;SDS011;8204;53.582;10.080;2023-05-10T02:03:29;5.73;;;5.10;;
16193;SDS011;8204;53.582;10.080;2023-05-10T02:06:00;6.83;;;6.27;;
16193;SDS011;8204;53.582;10.080;2023-05-10T02:08:30;6.77;;;5.77;;
16193;SDS011;8204;53.582;10.080;2023-05-10T02:10:59;6.33;;;5.73;;
16193;SDS011;8204;53.582;10.080;2023-05-10T02:13:29;6.27;;;5.07;;
16193;SDS011;8204;53.582;10.080;2023-05-10T02:16:01;6.50;;;5.83;;
16193;SDS011;8204;53.582;10.080;2023-05-10T02:18:36;6.37;;;5.77;;
16193;SDS011;8204;53.582;10.080;2023-05-10T02:21:05;7.93;;;5.83;;
16193;SDS011;8204;53.582;10.080;2023-05-10T02:23:36;8.90;;;8.10;;
16193;SDS011;8204;53.582;10.080;2023-05-10T02:26:06;7.77;;;7.10;;
16193;SDS011;8204;53.582;10.080;2023-05-10T02:28:37;7.27;;;6.57;;
16193;SDS011;8204;53.582;10.080;2023-05-10T02:31:08;7.10;;;6.13;;
16193;SDS011;8204;53.582;10.080;2023-05-10T02:33:41;8.17;;;6.00;;
16193;SDS011;8204;53.582;10.080;2023-05-10T02:36:13;6.17;;;5.60;;
16193;SDS011;8204;53.582;10.080;2023-05-10T02:38:42;7.57;;;5.23;;
16193;SDS011;8204;53.582;10.080;2023-05-10T02:41:12;5.53;;;5.13;;
16193;SDS011;8204;53.582;10.080;2023-05-10T02:43:42;8.60;;;5.23;;
16193;SDS011;8204;53.582;10.080;2023-05-10T02:46:12;9.23;;;6.13;;
16193;SDS011;8204;53.582;10.080;2023-05-10T02:48:43;6.03;;;5.13;;
16193;SDS011;8204;53.582;10.080;2023-05-10T02:51:13;5.73;;;5.23;;
16193;SDS011;8204;53.582;10.080;2023-05-10T02:53:46;11.93;;;6.87;;
16193;SDS011;8204;53.582;10.080;2023-05-10T02:56:20;7.10;;;6.50;;
16193;SDS011;8204;53.582;10.080;2023-05-10T02:58:53;9.33;;;6.27;;
16193;SDS011;8204;53.582;10.080;2023-05-10T03:01:22;6.20;;;5.63;;
16193;SDS011;8204;53.582;10.080;2023-05-10T03:03:53;6.93;;;5.57;;
16193;SDS011;8204;53.582;10.080;2023-05-10T03:06:22;10.60;;;6.47;;
16193;SDS011;8204;53.582;10.080;2023-05-10T03:08:51;6.50;;;5.87;;
16193;SDS011;8204;53.582;10.080;2023-05-10T03:11:26;6.63;;;6.03;;
16193;SDS011;8204;53.582;10.080;2023-05-10T03:14:10;7.27;;;5.70;;
16193;SDS011;8204;53.582;10.080;2023-05-10T03:16:56;7.00;;;6.20;;
16193;SDS011;8204;53.582;10.080;2023-05-10T03:19:32;6.80;;;6.20;;
16193;SDS011;8204;53.582;10.080;2023-05-10T03:22:08;5.67;;;5.17;;
16193;SDS011;8204;53.582;10.080;2023-05-10T03:24:39;7.17;;;6.47;;
16193;SDS011;8204;53.582;10.080;2023-05-10T03:27:10;8.27;;;5.53;;
16193;SDS011;8204;53.582;10.080;2023-05-10T03:29:39;6.57;;;5.70;;
16193;SDS011;8204;53.582;10.080;2023-05-10T03:32:11;5.63;;;5.03;;
16193;SDS011;8204;53.582;10.080;2023-05-10T03:34:43;6.60;;;6.00;;
16193;SDS011;8204;53.582;10.080;2023-05-10T03:37:12;6.37;;;5.87;;
16193;SDS011;8204;53.582;10.080;2023-05-10T03:39:41;7.97;;;6.97;;
16193;SDS011;8204;53.582;10.080;2023-05-10T03:42:10;7.70;;;7.00;;
16193;SDS011;8204;53.582;10.080;2023-05-10T03:44:39;8.70;;;6.63;;
16193;SDS011;8204;53.582;10.080;2023-05-10T03:47:08;6.23;;;5.63;;
16193;SDS011;8204;53.582;10.080;2023-05-10T03:49:36;6.53;;;6.03;;
16193;SDS011;8204;53.582;10.080;2023-05-10T03:52:08;7.17;;;6.57;;
16193;SDS011;8204;53.582;10.080;2023-05-10T03:54:40;7.03;;;5.47;;
16193;SDS011;8204;53.582;10.080;2023-05-10T03:57:09;5.97;;;5.50;;
16193;SDS011;8204;53.582;10.080;2023-05-10T03:59:38;6.90;;;6.17;;
16193;SDS011;8204;53.582;10.080;2023-05-10T04:02:06;7.27;;;6.27;;
16193;SDS011;8204;53.582;10.080;2023-05-10T04:04:35;5.90;;;5.07;;
16193;SDS011;8204;53.582;10.080;2023-05-10T04:07:04;6.60;;;6.00;;
16193;SDS011;8204;53.582;10.080;2023-05-10T04:09:35;6.47;;;5.97;;
16193;SDS011;8204;53.582;10.080;2023-05-10T04:12:04;6.07;;;5.57;;
16193;SDS011;8204;53.582;10.080;2023-05-10T04:14:34;7.30;;;6.50;;
16193;SDS011;8204;53.582;10.080;2023-05-10T04:17:03;6.30;;;5.37;;
16193;SDS011;8204;53.582;10.080;2023-05-10T04:19:32;8.00;;;7.30;;
16193;SDS011;8204;53.582;10.080;2023-05-10T04:22:02;6.73;;;6.10;;
16193;SDS011;8204;53.582;10.080;2023-05-10T04:24:31;7.07;;;6.47;;
16193;SDS011;8204;53.582;10.080;2023-05-10T04:27:02;6.53;;;5.93;;
16193;SDS011;8204;53.582;10.080;2023-05-10T04:29:31;6.77;;;5.90;;
16193;SDS011;8204;53.582;10.080;2023-05-10T04:32:00;6.40;;;5.87;;
16193;SDS011;8204;53.582;10.080;2023-05-10T04:34:29;9.80;;;8.90;;
16193;SDS011;8204;53.582;10.080;2023-05-10T04:36:59;6.70;;;6.10;;
16193;SDS011;8204;53.582;10.080;2023-05-10T04:39:28;5.77;;;4.93;;
16193;SDS011;8204;53.582;10.080;2023-05-10T04:41:57;6.30;;;5.70;;
16193;SDS011;8204;53.582;10.080;2023-05-10T04:44:29;10.70;;;6.03;;
16193;SDS011;8204;53.582;10.080;2023-05-10T04:46:58;6.27;;;5.67;;
16193;SDS011;8204;53.582;10.080;2023-05-10T04:49:27;5.80;;;5.27;;
16193;SDS011;8204;53.582;10.080;2023-05-10T04:51:56;7.90;;;6.13;;
16193;SDS011;8204;53.582;10.080;2023-05-10T04:54:25;7.37;;;5.97;;
16193;SDS011;8204;53.582;10.080;2023-05-10T04:56:54;5.97;;;5.57;;
16193;SDS011;8204;53.582;10.080;2023-05-10T04:59:23;10.47;;;6.23;;
16193;SDS011;8204;53.582;10.080;2023-05-10T05:01:55;5.97;;;5.57;;
16193;SDS011;8204;53.582;10.080;2023-05-10T05:04:23;7.03;;;6.33;;
16193;SDS011;8204;53.582;10.080;2023-05-10T05:06:52;6.43;;;5.83;;
16193;SDS011;8204;53.582;10.080;2023-05-10T05:09:21;6.27;;;5.77;;
16193;SDS011;8204;53.582;10.080;2023-05-10T05:11:50;6.47;;;5.87;;
16193;SDS011;8204;53.582;10.080;2023-05-10T05:14:19;7.00;;;6.03;;
16193;SDS011;8204;53.582;10.080;2023-05-10T05:16:50;6.33;;;5.73;;
16193;SDS011;8204;53.582;10.080;2023-05-10T05:19:22;7.37;;;5.77;;
16193;SDS011;8204;53.582;10.080;2023-05-10T05:21:51;6.07;;;5.57;;
16193;SDS011;8204;53.582;10.080;2023-05-10T05:24:20;7.10;;;6.40;;
16193;SDS011;8204;53.582;10.080;2023-05-10T05:26:49;6.23;;;5.63;;
16193;SDS011;8204;53.582;10.080;2023-05-10T05:29:18;7.67;;;7.07;;
16193;SDS011;8204;53.582;10.080;2023-05-10T05:31:47;6.83;;;6.33;;
16193;SDS011;8204;53.582;10.080;2023-05-10T05:34:16;7.40;;;6.40;;
16193;SDS011;8204;53.582;10.080;2023-05-10T05:36:48;6.93;;;6.30;;
16193;SDS011;8204;53.582;10.080;2023-05-10T05:39:17;7.80;;;7.10;;
16193;SDS011;8204;53.582;10.080;2023-05-10T05:41:46;6.23;;;5.63;;
16193;SDS011;8204;53.582;10.080;2023-05-10T05:44:14;6.57;;;5.97;;
16193;SDS011;8204;53.582;10.080;2023-05-10T05:46:43;6.23;;;5.73;;
16193;SDS011;8204;53.582;10.080;2023-05-10T05:49:12;7.00;;;6.07;;
16193;SDS011;8204;53.582;10.080;2023-05-10T05:51:41;10.70;;;7.40;;
16193;SDS011;8204;53.582;10.080;2023-05-10T05:54:12;7.13;;;6.47;;
16193;SDS011;8204;53.582;10.080;2023-05-10T05:56:41;5.20;;;4.80;;
16193;SDS011;8204;53.582;10.080;2023-05-10T05:59:10;6.10;;;5.60;;
16193;SDS011;8204;53.582;10.080;2023-05-10T06:01:39;6.57;;;5.97;;
16193;SDS011;8204;53.582;10.080;2023-05-10T06:04:08;6.43;;;5.93;;
16193;SDS011;8204;53.582;10.080;2023-05-10T06:06:37;6.63;;;5.90;;
16193;SDS011;8204;53.582;10.080;2023-05-10T06:09:08;6.60;;;6.03;;
16193;SDS011;8204;53.582;10.080;2023-05-10T06:11:42;6.43;;;5.83;;
16193;SDS011;8204;53.582;10.080;2023-05-10T06:14:11;6.67;;;5.83;;
16193;SDS011;8204;53.582;10.080;2023-05-10T06:16:40;6.17;;;5.53;;
16193;SDS011;8204;53.582;10.080;2023-05-10T06:19:09;5.77;;;5.23;;
16193;SDS011;8204;53.582;10.080;2023-05-10T06:21:38;5.60;;;5.20;;
16193;SDS011;8204;53.582;10.080;2023-05-10T06:24:07;6.27;;;5.83;;
16193;SDS011;8204;53.582;10.080;2023-05-10T06:26:36;6.23;;;5.73;;
16193;SDS011;8204;53.582;10.080;2023-05-10T06:29:08;6.37;;;5.77;;
16193;SDS011;8204;53.582;10.080;2023-05-10T06:31:37;7.00;;;6.37;;
16193;SDS011;8204;53.582;10.080;2023-05-10T06:34:05;6.90;;;6.30;;
16193;SDS011;8204;53.582;10.080;2023-05-10T06:36:34;7.67;;;6.80;;
16193;SDS011;8204;53.582;10.080;2023-05-10T06:39:03;6.27;;;5.67;;
16193;SDS011;8204;53.582;10.080;2023-05-10T06:41:32;6.47;;;5.87;;
16193;SDS011;8204;53.582;10.080;2023-05-10T06:44:01;7.17;;;6.57;;
16193;SDS011;8204;53.582;10.080;2023-05-10T06:46:33;5.63;;;5.23;;
16193;SDS011;8204;53.582;10.080;2023-05-10T06:49:02;6.43;;;5.80;;
16193;SDS011;8204;53.582;10.080;2023-05-10T06:51:31;6.33;;;5.83;;
16193;SDS011;8204;53.582;10.080;2023-05-10T06:54:00;6.57;;;5.97;;
16193;SDS011;8204;53.582;10.080;2023-05-10T06:56:29;6.27;;;5.77;;
16193;SDS011;8204;53.582;10.080;2023-05-10T06:58:58;6.83;;;5.37;;
16193;SDS011;8204;53.582;10.080;2023-05-10T07:01:27;6.37;;;5.87;;
16193;SDS011;8204;53.582;10.080;2023-05-10T07:03:59;6.23;;;5.73;;
16193;SDS011;8204;53.582;10.080;2023-05-10T07:06:28;6.60;;;6.10;;
16193;SDS011;8204;53.582;10.080;2023-05-10T07:08:56;7.60;;;6.70;;
16193;SDS011;8204;53.582;10.080;2023-05-10T07:11:26;7.07;;;6.43;;
16193;SDS011;8204;53.582;10.080;2023-05-10T07:13:54;6.73;;;6.23;;
16193;SDS011;8204;53.582;10.080;2023-05-10T07:16:23;6.43;;;5.77;;
16193;SDS011;8204;53.582;10.080;2023-05-10T07:18:52;7.00;;;6.17;;
16193;SDS011;8204;53.582;10.080;2023-05-10T07:21:24;6.33;;;5.60;;
16193;SDS011;8204;53.582;10.080;2023-05-10T07:23:54;7.77;;;6.57;;
16193;SDS011;8204;53.582;10.080;2023-05-10T07:26:23;6.70;;;6.20;;
16193;SDS011;8204;53.582;10.080;2023-05-10T07:28:52;7.17;;;6.57;;
16193;SDS011;8204;53.582;10.080;2023-05-10T07:31:21;6.57;;;6.07;;
16193;SDS011;8204;53.582;10.080;2023-05-10T07:33:49;6.20;;;5.70;;
16193;SDS011;8204;53.582;10.080;2023-05-10T07:36:18;6.17;;;5.20;;
16193;SDS011;8204;53.582;10.080;2023-05-10T07:38:50;8.33;;;6.80;;
16193;SDS011;8204;53.582;10.080;2023-05-10T07:41:19;6.93;;;6.17;;
16193;SDS011;8204;53.582;10.080;2023-05-10T07:43:49;6.40;;;5.80;;
16193;SDS011;8204;53.582;10.080;2023-05-10T07:46:17;8.80;;;7.13;;
16193;SDS011;8204;53.582;10.080;2023-05-10T07:48:47;7.30;;;6.70;;
16193;SDS011;8204;53.582;10.080;2023-05-10T07:51:16;5.97;;;5.47;;
16193;SDS011;8204;53.582;10.080;2023-05-10T07:53:45;6.13;;;5.73;;
16193;SDS011;8204;53.582;10.080;2023-05-10T07:56:23;6.43;;;5.73;;
16193;SDS011;8204;53.582;10.080;2023-05-10T07:58:55;6.23;;;5.70;;
16193;SDS011;8204;53.582;10.080;2023-05-10T08:01:24;7.80;;;6.67;;
16193;SDS011;8204;53.582;10.080;2023-05-10T08:03:54;6.40;;;5.80;;
16193;SDS011;8204;53.582;10.080;2023-05-10T08:06:23;6.87;;;6.37;;
16193;SDS011;8204;53.582;10.080;2023-05-10T08:08:52;8.13;;;6.90;;
16193;SDS011;8204;53.582;10.080;2023-05-10T08:11:24;6.63;;;6.10;;
16193;SDS011;8204;53.582;10.080;2023-05-10T08:13:53;7.70;;;7.00;;
16193;SDS011;8204;53.582;10.080;2023-05-10T08:16:22;6.57;;;6.07;;
16193;SDS011;8204;53.582;10.080;2023-05-10T08:18:51;6.90;;;6.40;;
16193;SDS011;8204;53.582;10.080;2023-05-10T08:21:20;6.77;;;6.00;;
16193;SDS011;8204;53.582;10.080;2023-05-10T08:23:50;7.73;;;6.47;;
16193;SDS011;8204;53.582;10.080;2023-05-10T08:26:18;6.23;;;5.83;;
16193;SDS011;8204;53.582;10.080;2023-05-10T08:28:50;8.23;;;5.87;;
16193;SDS011;8204;53.582;10.080;2023-05-10T08:31:18;6.40;;;5.90;;
16193;SDS011;8204;53.582;10.080;2023-05-10T08:33:47;6.93;;;6.33;;
16193;SDS011;8204;53.582;10.080;2023-05-10T08:36:17;5.57;;;5.17;;
16193;SDS011;8204;53.582;10.080;2023-05-10T08:38:49;6.23;;;5.70;;
16193;SDS011;8204;53.582;10.080;2023-05-10T08:41:19;6.87;;;6.37;;
16193;SDS011;8204;53.582;10.080;2023-05-10T08:43:52;6.03;;;5.53;;
16193;SDS011;8204;53.582;10.080;2023-05-10T08:46:22;6.47;;;5.97;;
16193;SDS011;8204;53.582;10.080;2023-05-10T08:48:51;7.10;;;6.13;;
16193;SDS011;8204;53.582;10.080;2023-05-10T08:51:24;6.83;;;6.23;;
16193;SDS011;8204;53.582;10.080;2023-05-10T08:53:55;11.27;;;10.27;;
16193;SDS011;8204;53.582;10.080;2023-05-10T08:56:24;6.37;;;5.97;;
16193;SDS011;8204;53.582;10.080;2023-05-10T08:58:56;7.60;;;6.90;;
16193;SDS011;8204;53.582;10.080;2023-05-10T09:01:25;7.77;;;7.07;;
16193;SDS011;8204;53.582;10.080;2023-05-10T09:03:55;8.10;;;6.13;;
16193;SDS011;8204;53.582;10.080;2023-05-10T09:06:24;7.30;;;6.77;;
16193;SDS011;8204;53.582;10.080;2023-05-10T09:08:54;7.23;;;6.20;;
16193;SDS011;8204;53.582;10.080;2023-05-10T09:11:24;6.80;;;6.20;;
16193;SDS011;8204;53.582;10.080;2023-05-10T09:13:57;7.97;;;7.20;;
16193;SDS011;8204;53.582;10.080;2023-05-10T09:16:26;7.63;;;6.90;;
16193;SDS011;8204;53.582;10.080;2023-05-10T09:18:54;5.60;;;5.20;;
16193;SDS011;8204;53.582;10.080;2023-05-10T09:21:24;6.23;;;5.73;;
16193;SDS011;8204;53.582;10.080;2023-05-10T09:23:53;7.03;;;6.43;;
16193;SDS011;8204;53.582;10.080;2023-05-10T09:26:22;9.97;;;6.80;;
16193;SDS011;8204;53.582;10.080;2023-05-10T09:28:52;8.27;;;6.23;;
16193;SDS011;8204;53.582;10.080;2023-05-10T09:31:25;7.03;;;6.30;;
16193;SDS011;8204;53.582;10.080;2023-05-10T09:34:15;8.37;;;7.67;;
16193;SDS011;8204;53.582;10.080;2023-05-10T09:36:51;7.60;;;7.00;;
16193;SDS011;8204;53.582;10.080;2023-05-10T09:39:29;7.57;;;7.07;;
16193;SDS011;8204;53.582;10.080;2023-05-10T09:41:59;8.57;;;7.73;;
16193;SDS011;8204;53.582;10.080;2023-05-10T09:44:30;7.43;;;6.77;;
16193;SDS011;8204;53.582;10.080;2023-05-10T09:47:02;8.10;;;7.40;;
16193;SDS011;8204;53.582;10.080;2023-05-10T09:49:31;8.57;;;7.60;;
16193;SDS011;8204;53.582;10.080;2023-05-10T09:52:01;8.50;;;6.83;;
16193;SDS011;8204;53.582;10.080;2023-05-10T09:54:32;7.83;;;7.17;;
16193;SDS011;8204;53.582;10.080;2023-05-10T09:57:02;6.97;;;6.27;;
16193;SDS011;8204;53.582;10.080;2023-05-10T09:59:32;9.57;;;8.33;;
16193;SDS011;8204;53.582;10.080;2023-05-10T10:02:04;7.87;;;7.23;;
16193;SDS011;8204;53.582;10.080;2023-05-10T10:04:38;7.53;;;6.93;;
16193;SDS011;8204;53.582;10.080;2023-05-10T10:07:08;8.07;;;7.37;;
16193;SDS011;8204;53.582;10.080;2023-05-10T10:09:37;9.53;;;8.63;;
16193;SDS011;8204;53.582;10.080;2023-05-10T10:12:07;10.17;;;8.73;;
16193;SDS011;8204;53.582;10.080;2023-05-10T10:14:36;8.43;;;7.83;;
16193;SDS011;8204;53.582;10.080;2023-05-10T10:17:08;8.30;;;7.50;;
16193;SDS011;8204;53.582;10.080;2023-05-10T10:19:38;9.43;;;8.60;;
16193;SDS011;8204;53.582;10.080;2023-05-10T10:22:08;10.47;;;9.50;;
16193;SDS011;8204;53.582;10.080;2023-05-10T10:24:37;9.10;;;8.37;;
16193;SDS011;8204;53.582;10.080;2023-05-10T10:27:14;9.80;;;9.10;;
16193;SDS011;8204;53.582;10.080;2023-05-10T10:29:50;11.57;;;10.57;;
16193;SDS011;8204;53.582;10.080;2023-05-10T10:32:34;11.00;;;9.30;;
16193;SDS011;8204;53.582;10.080;2023-05-10T10:35:10;10.73;;;9.73;;
16193;SDS011;8204;53.582;10.080;2023-05-10T10:37:43;11.37;;;9.97;;
16193;SDS011;8204;53.582;10.080;2023-05-10T10:40:25;11.70;;;10.80;;
16193;SDS011;8204;53.582;10.080;2023-05-10T10:42:55;11.10;;;10.13;;
16193;SDS011;8204;53.582;10.080;2023-05-10T10:45:25;11.30;;;10.30;;
16193;SDS011;8204;53.582;10.080;2023-05-10T10:50:56;10.70;;;9.80;;
16193;SDS011;8204;53.582;10.080;2023-05-10T10:53:25;11.57;;;10.43;;
16193;SDS011;8204;53.582;10.080;2023-05-10T10:56:02;11.13;;;10.00;;
16193;SDS011;8204;53.582;10.080;2023-05-10T10:58:35;10.50;;;9.70;;
16193;SDS011;8204;53.582;10.080;2023-05-10T11:01:11;10.67;;;9.80;;
16193;SDS011;8204;53.582;10.080;2023-05-10T11:04:16;10.77;;;9.87;;
16193;SDS011;8204;53.582;10.080;2023-05-10T11:06:45;11.27;;;10.37;;
16193;SDS011;8204;53.582;10.080;2023-05-10T11:09:14;10.90;;;10.00;;
16193;SDS011;8204;53.582;10.080;2023-05-10T11:11:50;13.13;;;12.00;;
16193;SDS011;8204;53.582;10.080;2023-05-10T11:14:20;12.37;;;11.13;;
16193;SDS011;8204;53.582;10.080;2023-05-10T11:16:50;11.53;;;10.57;;
16193;SDS011;8204;53.582;10.080;2023-05-10T11:19:22;10.93;;;10.13;;
16193;SDS011;8204;53.582;10.080;2023-05-10T11:24:41;11.23;;;10.33;;
16193;SDS011;8204;53.582;10.080;2023-05-10T11:27:24;12.47;;;11.47;;
16193;SDS011;8204;53.582;10.080;2023-05-10T11:29:53;12.03;;;10.90;;
16193;SDS011;8204;53.582;10.080;2023-05-10T11:32:22;12.47;;;11.47;;
16193;SDS011;8204;53.582;10.080;2023-05-10T11:34:53;11.10;;;10.00;;
16193;SDS011;8204;53.582;10.080;2023-05-10T11:37:22;13.43;;;12.23;;
16193;SDS011;8204;53.582;10.080;2023-05-10T11:39:51;11.50;;;10.60;;
16193;SDS011;8204;53.582;10.080;2023-05-10T11:42:23;10.70;;;9.80;;
16193;SDS011;8204;53.582;10.080;2023-05-10T11:44:52;11.57;;;10.67;;
16193;SDS011;8204;53.582;10.080;2023-05-10T11:47:20;12.63;;;11.73;;
16193;SDS011;8204;53.582;10.080;2023-05-10T11:49:50;13.70;;;12.50;;
16193;SDS011;8204;53.582;10.080;2023-05-10T11:52:22;12.63;;;11.57;;
16193;SDS011;8204;53.582;10.080;2023-05-10T11:54:52;14.10;;;12.90;;
16193;SDS011;8204;53.582;10.080;2023-05-10T11:57:25;13.40;;;12.30;;
16193;SDS011;8204;53.582;10.080;2023-05-10T11:59:56;13.67;;;12.57;;
16193;SDS011;8204;53.582;10.080;2023-05-10T12:02:25;14.27;;;13.03;;
16193;SDS011;8204;53.582;10.080;2023-05-10T12:04:57;13.57;;;12.47;;
16193;SDS011;8204;53.582;10.080;2023-05-10T12:07:26;12.10;;;11.07;;
16193;SDS011;8204;53.582;10.080;2023-05-10T12:10:07;13.17;;;12.17;;
16193;SDS011;8204;53.582;10.080;2023-05-10T12:12:40;13.30;;;12.20;;
16193;SDS011;8204;53.582;10.080;2023-05-10T12:15:11;13.67;;;12.47;;
16193;SDS011;8204;53.582;10.080;2023-05-10T12:17:41;12.73;;;11.53;;
16193;SDS011;8204;53.582;10.080;2023-05-10T12:20:21;13.90;;;12.80;;
16193;SDS011;8204;53.582;10.080;2023-05-10T12:22:51;12.67;;;11.67;;
16193;SDS011;8204;53.582;10.080;2023-05-10T12:25:23;12.70;;;11.40;;
16193;SDS011;8204;53.582;10.080;2023-05-10T12:27:58;13.43;;;12.33;;
16193;SDS011;8204;53.582;10.080;2023-05-10T12:30:29;12.83;;;11.73;;
16193;SDS011;8204;53.582;10.080;2023-05-10T12:32:59;12.30;;;11.37;;
16193;SDS011;8204;53.582;10.080;2023-05-10T12:35:43;12.50;;;11.30;;
16193;SDS011;8204;53.582;10.080;2023-05-10T12:38:25;14.00;;;12.77;;
16193;SDS011;8204;53.582;10.080;2023-05-10T12:40:56;13.10;;;11.90;;
16193;SDS011;8204;53.582;10.080;2023-05-10T12:43:25;13.37;;;12.17;;
16193;SDS011;8204;53.582;10.080;2023-05-10T12:45:54;13.30;;;12.00;;
16193;SDS011;8204;53.582;10.080;2023-05-10T12:48:23;12.53;;;11.33;;
16193;SDS011;8204;53.582;10.080;2023-05-10T12:50:56;13.03;;;12.03;;
16193;SDS011;8204;53.582;10.080;2023-05-10T12:53:25;12.93;;;11.83;;
16193;SDS011;8204;53.582;10.080;2023-05-10T12:55:56;12.07;;;11.17;;
16193;SDS011;8204;53.582;10.080;2023-05-10T12:58:25;13.87;;;12.57;;
16193;SDS011;8204;53.582;10.080;2023-05-10T13:01:00;12.87;;;11.83;;
16193;SDS011;8204;53.582;10.080;2023-05-10T13:03:30;11.67;;;10.67;;
16193;SDS011;8204;53.582;10.080;2023-05-10T13:06:02;12.33;;;11.33;;
16193;SDS011;8204;53.582;10.080;2023-05-10T13:08:31;15.40;;;14.17;;
16193;SDS011;8204;53.582;10.080;2023-05-10T13:11:00;12.53;;;11.43;;
16193;SDS011;8204;53.582;10.080;2023-05-10T13:13:29;12.27;;;11.23;;
16193;SDS011;8204;53.582;10.080;2023-05-10T13:15:58;12.57;;;11.57;;
16193;SDS011;8204;53.582;10.080;2023-05-10T13:18:27;11.70;;;10.70;;
16193;SDS011;8204;53.582;10.080;2023-05-10T13:20:56;11.40;;;10.30;;
16193;SDS011;8204;53.582;10.080;2023-05-10T13:23:27;12.00;;;11.00;;
16193;SDS011;8204;53.582;10.080;2023-05-10T13:25:56;10.43;;;9.63;;
16193;SDS011;8204;53.582;10.080;2023-05-10T13:28:26;9.23;;;8.43;;
16193;SDS011;8204;53.582;10.080;2023-05-10T13:30:57;11.33;;;10.43;;
16193;SDS011;8204;53.582;10.080;2023-05-10T13:33:29;11.57;;;10.63;;
16193;SDS011;8204;53.582;10.080;2023-05-10T13:35:59;9.90;;;9.00;;
16193;SDS011;8204;53.582;10.080;2023-05-10T13:38:32;9.53;;;8.73;;
16193;SDS011;8204;53.582;10.080;2023-05-10T13:41:01;10.00;;;9.07;;
16193;SDS011;8204;53.582;10.080;2023-05-10T13:43:30;8.40;;;7.70;;
16193;SDS011;8204;53.582;10.080;2023-05-10T13:45:59;8.10;;;7.40;;
16193;SDS011;8204;53.582;10.080;2023-05-10T13:48:28;8.57;;;7.97;;
16193;SDS011;8204;53.582;10.080;2023-05-10T13:50:57;8.67;;;7.97;;
16193;SDS011;8204;53.582;10.080;2023-05-10T13:53:26;7.80;;;7.23;;
16193;SDS011;8204;53.582;10.080;2023-05-10T13:55:57;8.03;;;6.97;;
16193;SDS011;8204;53.582;10.080;2023-05-10T13:58:27;6.63;;;6.23;;
16193;SDS011;8204;53.582;10.080;2023-05-10T14:00:57;6.50;;;6.10;;
16193;SDS011;8204;53.582;10.080;2023-05-10T14:03:25;6.17;;;5.70;;
16193;SDS011;8204;53.582;10.080;2023-05-10T14:05:54;6.70;;;6.10;;
16193;SDS011;8204;53.582;10.080;2023-05-10T14:08:23;7.93;;;7.10;;
16193;SDS011;8204;53.582;10.080;2023-05-10T14:10:52;7.03;;;6.53;;
16193;SDS011;8204;53.582;10.080;2023-05-10T14:13:27;6.07;;;5.67;;
16193;SDS011;8204;53.582;10.080;2023-05-10T14:16:00;6.37;;;5.77;;
16193;SDS011;8204;53.582;10.080;2023-05-10T14:18:29;5.87;;;5.37;;
16193;SDS011;8204;53.582;10.080;2023-05-10T14:20:58;5.57;;;5.17;;
16193;SDS011;8204;53.582;10.080;2023-05-10T14:23:28;5.80;;;5.37;;
16193;SDS011;8204;53.582;10.080;2023-05-10T14:26:02;5.40;;;4.93;;
16193;SDS011;8204;53.582;10.080;2023-05-10T14:28:35;5.97;;;5.47;;
16193;SDS011;8204;53.582;10.080;2023-05-10T14:31:07;6.10;;;5.50;;
16193;SDS011;8204;53.582;10.080;2023-05-10T14:33:38;6.47;;;5.87;;
16193;SDS011;8204;53.582;10.080;2023-05-10T14:36:06;6.33;;;5.73;;
16193;SDS011;8204;53.582;10.080;2023-05-10T14:38:36;6.27;;;5.67;;
16193;SDS011;8204;53.582;10.080;2023-05-10T14:41:05;5.80;;;5.40;;
16193;SDS011;8204;53.582;10.080;2023-05-10T14:43:37;5.50;;;5.10;;
16193;SDS011;8204;53.582;10.080;2023-05-10T14:46:06;6.53;;;6.03;;
16193;SDS011;8204;53.582;10.080;2023-05-10T14:48:35;5.97;;;5.53;;
16193;SDS011;8204;53.582;10.080;2023-05-10T14:51:04;6.07;;;5.57;;
16193;SDS011;8204;53.582;10.080;2023-05-10T14:53:32;6.47;;;5.97;;
16193;SDS011;8204;53.582;10.080;2023-05-10T14:56:02;6.53;;;6.13;;
16193;SDS011;8204;53.582;10.080;2023-05-10T14:58:33;7.00;;;6.40;;
16193;SDS011;8204;53.582;10.080;2023-05-10T15:01:06;6.50;;;5.93;;
16193;SDS011;8204;53.582;10.080;2023-05-10T15:03:36;6.77;;;6.03;;
16193;SDS011;8204;53.582;10.080;2023-05-10T15:06:08;6.97;;;6.43;;
16193;SDS011;8204;53.582;10.080;2023-05-10T15:08:39;6.50;;;6.00;;
16193;SDS011;8204;53.582;10.080;2023-05-10T15:11:10;7.33;;;6.83;;